Terminal Aerodrome Forecast
Issued by NWS

Home | Current Version | Previous Version | Text Only | Print | Product List | Glossary On
Versions: 1 2 3 4 5 6 7 8 9 10 11 12 13 14 15 16 17 18
000
FTUS46 KMTR 262300
TAFOAK
TAF
KOAK 262335Z 2700/2806 27012KT P6SM FEW015 BKN200
     FM270400 29009KT P6SM FEW020 SCT200
     FM270900 29008KT P6SM BKN018
     FM271700 28012KT P6SM SCT022 BKN150
     FM272100 28015KT P6SM SCT025 BKN100
     FM280000 27022KT P6SM SCT025 BKN100=

USA.gov is the U.S. government's official web portal to all federal, state and local government web resources and services.